Cross Keys, New Jersey
Current Conditions -  °F | °C
As of 5:54 AM on Thursday 18 Dec 2014 (Local Time) from KPHL Reporting Station
Few Clouds Few Clouds  
Wind Chill: 27°   Ceiling: Unl
Heat Index: 35°   Visibility: 10mi
Dew Point: 17°   Wind: 10mph
Humidity: 48%   Direction: 290°WNW
Pressure: 30.05"   Gusts: NA
Location:  39.7561°N, 75.1094°W
Report Text: KPHL 181054Z 29009KT 10SM FEW055 02/M08 A3005 RMK AO2 SLP176 T00171083
Loading
Personal Weather Stations






























Interactive Weather Map New forecast layout! Learn more

10-Day Weather Forecast

Advertisements
Track Severe Weather on mobile